createdAt,value
2018-09-24T00:00:57.851Z,10.10
2018-09-24T00:03:26.021Z,10.10
2018-09-24T00:05:54.183Z,10.00
2018-09-24T00:08:22.349Z,10.00
2018-09-24T00:10:50.503Z,9.90
2018-09-24T00:13:18.657Z,9.90
2018-09-24T00:15:46.824Z,9.80
2018-09-24T00:18:14.987Z,9.80
2018-09-24T00:20:43.153Z,9.80
2018-09-24T00:23:11.302Z,9.80
2018-09-24T00:25:39.462Z,9.80
2018-09-24T00:28:07.621Z,9.80
2018-09-24T00:30:35.767Z,9.80
2018-09-24T00:33:03.907Z,9.80
2018-09-24T00:35:32.061Z,9.70
2018-09-24T00:38:00.211Z,9.70
2018-09-24T00:40:28.374Z,9.70
2018-09-24T00:42:56.518Z,9.60
2018-09-24T00:45:24.666Z,9.60
2018-09-24T00:47:52.824Z,9.60
2018-09-24T00:50:20.995Z,9.50
2018-09-24T00:52:49.123Z,9.50
2018-09-24T00:55:17.283Z,9.50
2018-09-24T00:57:45.434Z,9.50
2018-09-24T01:00:13.603Z,9.50
2018-09-24T01:02:41.750Z,9.40
2018-09-24T01:05:09.923Z,9.40
2018-09-24T01:07:38.071Z,9.30
2018-09-24T01:10:07.396Z,9.30
2018-09-24T01:12:35.542Z,9.20
2018-09-24T01:15:03.715Z,9.20
2018-09-24T01:17:31.871Z,9.20
2018-09-24T01:20:00.060Z,9.10
2018-09-24T01:22:28.210Z,9.10
2018-09-24T01:24:56.348Z,9.10
2018-09-24T01:27:24.479Z,9.00
2018-09-24T01:29:52.609Z,9.00
2018-09-24T01:32:20.719Z,9.00
2018-09-24T01:34:48.887Z,9.00
2018-09-24T01:37:17.016Z,9.00
2018-09-24T01:39:45.183Z,8.90
2018-09-24T01:42:13.339Z,8.90
2018-09-24T01:44:41.590Z,8.90
2018-09-24T01:47:09.740Z,8.80
2018-09-24T01:49:37.860Z,8.80
2018-09-24T01:52:06.011Z,8.80
2018-09-24T01:54:34.155Z,8.80
2018-09-24T01:57:02.332Z,8.70
2018-09-24T01:59:30.475Z,8.70
2018-09-24T02:01:58.624Z,8.70
2018-09-24T02:04:26.763Z,8.70
2018-09-24T02:07:00.314Z,8.70
2018-09-24T02:09:28.924Z,8.70
2018-09-24T02:12:02.908Z,8.80
2018-09-24T02:14:31.050Z,8.80
2018-09-24T02:16:59.215Z,8.80
2018-09-24T02:19:27.355Z,8.90
2018-09-24T02:21:55.497Z,9.00
2018-09-24T02:24:23.714Z,9.00
2018-09-24T02:26:51.868Z,9.00
2018-09-24T02:29:20.017Z,8.90
2018-09-24T02:31:48.212Z,8.90
2018-09-24T02:34:16.357Z,8.90
2018-09-24T02:36:44.500Z,8.90
2018-09-24T02:39:12.748Z,9.00
2018-09-24T02:41:41.231Z,8.90
2018-09-24T02:44:09.702Z,8.90
2018-09-24T02:46:43.719Z,8.80
2018-09-24T02:49:11.864Z,8.80
2018-09-24T02:51:40.032Z,8.80
2018-09-24T02:54:17.267Z,8.80
2018-09-24T02:56:49.727Z,8.80
2018-09-24T02:59:18.267Z,8.80
2018-09-24T03:01:46.396Z,8.90
2018-09-24T03:04:14.557Z,8.90
2018-09-24T03:06:42.708Z,8.90
2018-09-24T03:09:12.653Z,8.90
2018-09-24T03:11:41.233Z,8.90
2018-09-24T03:14:09.357Z,8.90
2018-09-24T03:16:37.688Z,8.90
2018-09-24T03:19:06.043Z,8.80
2018-09-24T03:21:34.210Z,8.80
2018-09-24T03:24:02.396Z,8.70
2018-09-24T03:26:30.547Z,8.70
2018-09-24T03:28:58.721Z,8.60
2018-09-24T03:31:26.843Z,8.60
2018-09-24T03:33:54.995Z,8.50
2018-09-24T03:36:23.123Z,8.50
2018-09-24T03:38:51.291Z,8.40
2018-09-24T03:41:19.439Z,8.50
2018-09-24T03:43:47.631Z,8.50
2018-09-24T03:46:15.773Z,8.50
2018-09-24T03:48:43.927Z,8.40
2018-09-24T03:51:12.087Z,8.40
2018-09-24T03:53:40.231Z,8.30
2018-09-24T03:56:08.412Z,8.30
2018-09-24T03:58:36.544Z,8.30
2018-09-24T04:01:04.729Z,8.20
2018-09-24T04:03:32.865Z,8.20
2018-09-24T04:06:06.617Z,8.20
2018-09-24T04:08:40.303Z,8.20
2018-09-24T04:11:14.052Z,8.10
2018-09-24T04:13:47.723Z,8.10
2018-09-24T04:16:21.417Z,8.10
2018-09-24T04:18:54.998Z,8.10
2018-09-24T04:21:28.559Z,8.10
2018-09-24T04:24:02.096Z,8.00
2018-09-24T04:26:35.663Z,8.00
2018-09-24T04:29:09.163Z,8.00
2018-09-24T04:31:42.643Z,7.90
2018-09-24T04:34:16.212Z,8.00
2018-09-24T04:36:49.840Z,7.90
2018-09-24T04:39:24.012Z,7.90
2018-09-24T04:41:57.567Z,8.00
2018-09-24T04:44:30.963Z,7.90
2018-09-24T04:47:04.492Z,7.90
2018-09-24T04:49:38.152Z,7.80
2018-09-24T04:52:11.751Z,7.80
2018-09-24T04:54:45.309Z,7.80
2018-09-24T04:57:18.838Z,7.80
2018-09-24T04:59:52.481Z,7.80
2018-09-24T05:02:26.031Z,7.70
2018-09-24T05:04:59.669Z,7.70
2018-09-24T05:07:33.456Z,7.70
2018-09-24T05:10:07.162Z,7.70
2018-09-24T05:12:40.844Z,7.70
2018-09-24T05:15:14.305Z,7.70
2018-09-24T05:17:47.959Z,7.80
2018-09-24T05:20:21.479Z,7.70
2018-09-24T05:22:55.049Z,7.70
2018-09-24T05:25:28.623Z,7.70
2018-09-24T05:28:02.328Z,7.70
2018-09-24T05:30:35.851Z,7.70
2018-09-24T05:33:09.542Z,7.70
2018-09-24T05:35:43.127Z,7.70
2018-09-24T05:38:16.815Z,7.70
2018-09-24T05:40:50.191Z,7.70
2018-09-24T05:43:23.787Z,7.70
2018-09-24T05:45:57.291Z,7.70
2018-09-24T05:48:30.829Z,7.70
2018-09-24T05:51:04.284Z,7.70
2018-09-24T05:53:37.856Z,7.70
2018-09-24T05:56:11.543Z,7.80
2018-09-24T05:58:44.944Z,7.80
2018-09-24T06:01:18.588Z,7.90
2018-09-24T06:03:52.126Z,7.90
2018-09-24T06:06:25.828Z,7.90
2018-09-24T06:08:59.487Z,8.00
2018-09-24T06:11:33.156Z,8.10
2018-09-24T06:14:06.775Z,8.10
2018-09-24T06:16:40.267Z,8.20
2018-09-24T06:19:13.836Z,8.30
2018-09-24T06:21:47.268Z,8.40
2018-09-24T06:24:20.976Z,8.50
2018-09-24T06:26:54.395Z,8.60
2018-09-24T06:29:28.148Z,8.60
2018-09-24T06:32:01.733Z,8.70
2018-09-24T06:34:35.360Z,8.80
2018-09-24T06:37:08.932Z,8.90
2018-09-24T06:39:42.689Z,9.00
2018-09-24T06:42:16.202Z,9.00
2018-09-24T06:44:49.903Z,9.00
2018-09-24T06:47:23.428Z,9.10
2018-09-24T06:49:56.872Z,9.20
2018-09-24T06:52:30.377Z,9.30
2018-09-24T06:55:03.694Z,9.40
2018-09-24T06:57:37.065Z,9.50
2018-09-24T07:00:11.448Z,9.70
2018-09-24T07:02:44.996Z,9.80
2018-09-24T07:05:18.660Z,9.90
2018-09-24T07:07:52.232Z,10.00
2018-09-24T07:10:25.783Z,10.10
2018-09-24T07:12:59.456Z,10.30
2018-09-24T07:15:32.987Z,10.40
2018-09-24T07:18:06.566Z,10.60
2018-09-24T07:20:40.149Z,10.60
2018-09-24T07:23:13.860Z,10.70
2018-09-24T07:25:47.446Z,10.80
2018-09-24T07:28:20.920Z,10.90
2018-09-24T07:30:54.347Z,11.00
2018-09-24T07:33:28.072Z,11.00
2018-09-24T07:36:01.444Z,11.10
2018-09-24T07:38:35.084Z,11.20
2018-09-24T07:41:08.784Z,11.20
2018-09-24T07:43:42.338Z,11.30
2018-09-24T07:46:15.936Z,11.40
2018-09-24T07:48:49.548Z,11.50
2018-09-24T07:51:23.231Z,11.50
2018-09-24T07:53:56.851Z,11.60
2018-09-24T07:56:30.354Z,11.60
2018-09-24T07:59:04.091Z,11.60
2018-09-24T08:01:37.647Z,11.70
2018-09-24T08:04:11.581Z,11.70
2018-09-24T08:06:45.077Z,11.80
2018-09-24T08:09:18.788Z,11.90
2018-09-24T08:11:52.298Z,11.90
2018-09-24T08:14:26.004Z,12.00
2018-09-24T08:16:59.579Z,12.10
2018-09-24T08:19:33.284Z,12.20
2018-09-24T08:22:06.824Z,12.30
2018-09-24T08:24:40.577Z,12.40
2018-09-24T08:27:14.243Z,12.50
2018-09-24T08:29:47.972Z,12.60
2018-09-24T08:32:21.599Z,12.60
2018-09-24T08:34:55.099Z,12.50
2018-09-24T08:37:28.728Z,12.40
2018-09-24T08:40:02.226Z,12.40
2018-09-24T08:42:35.812Z,12.50
2018-09-24T08:45:09.459Z,12.60
2018-09-24T08:47:43.128Z,12.70
2018-09-24T08:50:16.614Z,12.80
2018-09-24T08:52:50.223Z,12.90
2018-09-24T08:55:23.804Z,13.00
2018-09-24T08:57:57.638Z,13.10
2018-09-24T09:00:31.196Z,13.00
2018-09-24T09:03:04.561Z,13.00
2018-09-24T09:05:38.054Z,12.90
2018-09-24T09:08:11.866Z,12.90
2018-09-24T09:10:45.353Z,12.90
2018-09-24T09:13:19.121Z,12.90
2018-09-24T09:15:52.742Z,13.00
2018-09-24T09:18:27.016Z,13.20
2018-09-24T09:21:00.723Z,13.40
2018-09-24T09:23:34.451Z,13.40
2018-09-24T09:26:08.132Z,13.50
2018-09-24T09:28:41.664Z,13.60
2018-09-24T09:31:15.260Z,13.70
2018-09-24T09:33:48.853Z,13.80
2018-09-24T09:36:22.575Z,13.90
2018-09-24T09:38:56.079Z,14.00
2018-09-24T09:41:29.761Z,14.20
2018-09-24T09:44:03.359Z,14.30
2018-09-24T09:46:36.916Z,14.30
2018-09-24T09:49:10.565Z,14.30
2018-09-24T09:51:44.202Z,14.50
2018-09-24T09:54:17.908Z,14.70
2018-09-24T09:56:51.644Z,14.80
2018-09-24T09:59:25.122Z,14.50
2018-09-24T10:01:58.584Z,14.40
2018-09-24T10:04:32.028Z,14.40
2018-09-24T10:07:05.615Z,14.60
2018-09-24T10:09:39.374Z,14.70
2018-09-24T10:12:13.020Z,14.80
2018-09-24T10:14:46.721Z,14.90
2018-09-24T10:17:20.468Z,15.10
2018-09-24T10:19:53.937Z,15.20
2018-09-24T10:22:27.415Z,15.20
2018-09-24T10:25:01.063Z,15.20
2018-09-24T10:27:34.820Z,15.10
2018-09-24T10:30:08.370Z,14.90
2018-09-24T10:32:41.738Z,14.70
2018-09-24T10:35:15.332Z,14.60
2018-09-24T10:37:49.095Z,14.30
2018-09-24T10:40:22.628Z,14.30
2018-09-24T10:42:56.336Z,14.30
2018-09-24T10:45:29.828Z,14.50
2018-09-24T10:48:03.539Z,14.50
2018-09-24T10:50:37.132Z,14.50
2018-09-24T10:53:10.762Z,14.40
2018-09-24T10:55:44.363Z,14.30
2018-09-24T10:58:17.946Z,14.10
2018-09-24T11:00:51.419Z,14.00
2018-09-24T11:03:25.056Z,13.90
2018-09-24T11:05:58.725Z,13.90
2018-09-24T11:08:32.363Z,14.00
2018-09-24T11:11:05.988Z,14.20
2018-09-24T11:13:39.654Z,14.30
2018-09-24T11:16:13.624Z,14.40
2018-09-24T11:18:47.069Z,14.50
2018-09-24T11:21:20.758Z,14.70
2018-09-24T11:23:54.113Z,14.90
2018-09-24T11:29:01.433Z,15.00
2018-09-24T11:31:35.099Z,15.00
2018-09-24T11:34:08.788Z,15.10
2018-09-24T11:36:42.224Z,15.40
2018-09-24T11:39:15.703Z,15.60
2018-09-24T11:41:49.116Z,15.90
2018-09-24T11:44:22.868Z,16.10
2018-09-24T11:46:56.346Z,16.40
2018-09-24T11:49:29.996Z,16.70
2018-09-24T11:52:03.489Z,17.00
2018-09-24T11:54:37.004Z,17.20
2018-09-24T11:57:10.459Z,17.20
2018-09-24T11:59:44.128Z,17.50
2018-09-24T12:02:17.847Z,17.70
2018-09-24T12:04:51.255Z,17.50
2018-09-24T12:07:24.763Z,17.20
2018-09-24T12:09:58.475Z,16.90
2018-09-24T12:12:32.028Z,16.60
2018-09-24T12:15:05.688Z,16.50
2018-09-24T12:17:39.273Z,16.40
2018-09-24T12:20:12.876Z,16.40
2018-09-24T12:22:46.624Z,16.70
2018-09-24T12:25:20.308Z,16.60
2018-09-24T12:27:53.976Z,16.30
2018-09-24T12:30:27.468Z,16.20
2018-09-24T12:33:01.192Z,16.10
2018-09-24T12:35:34.724Z,15.90
2018-09-24T12:38:08.513Z,15.70
2018-09-24T12:40:42.045Z,15.30
2018-09-24T12:43:15.800Z,15.20
2018-09-24T12:45:49.502Z,15.20
2018-09-24T12:48:23.068Z,15.10
2018-09-24T12:50:56.726Z,14.80
2018-09-24T12:53:30.582Z,14.70
2018-09-24T12:56:04.035Z,14.50
2018-09-24T12:58:37.685Z,14.40
2018-09-24T13:01:11.240Z,14.50
2018-09-24T13:03:44.763Z,14.60
2018-09-24T13:06:18.252Z,14.80
2018-09-24T13:08:51.913Z,14.90
2018-09-24T13:11:25.494Z,15.00
2018-09-24T13:13:59.048Z,15.10
2018-09-24T13:16:32.708Z,15.10
2018-09-24T13:19:06.412Z,15.20
2018-09-24T13:21:40.028Z,15.20
2018-09-24T13:24:13.463Z,15.40
2018-09-24T13:26:46.935Z,15.80
2018-09-24T13:29:20.623Z,15.90
2018-09-24T13:31:54.309Z,15.90
2018-09-24T13:34:28.052Z,16.10
2018-09-24T13:37:01.779Z,16.20
2018-09-24T13:39:35.156Z,16.40
2018-09-24T13:42:08.563Z,16.30
2018-09-24T13:44:41.980Z,16.10
2018-09-24T13:47:15.495Z,16.10
2018-09-24T13:49:49.032Z,16.10
2018-09-24T13:52:22.516Z,16.30
2018-09-24T13:54:55.957Z,16.90
2018-09-24T13:57:29.357Z,17.10
2018-09-24T14:00:02.900Z,17.00
2018-09-24T14:02:36.447Z,16.60
2018-09-24T14:05:10.108Z,16.20
2018-09-24T14:07:43.816Z,15.90
2018-09-24T14:10:17.424Z,15.40
2018-09-24T14:12:51.059Z,15.10
2018-09-24T14:15:24.535Z,14.80
2018-09-24T14:17:58.237Z,14.70
2018-09-24T14:20:31.803Z,14.60
2018-09-24T14:23:05.233Z,14.60
2018-09-24T14:25:38.842Z,14.40
2018-09-24T14:28:12.691Z,14.30
2018-09-24T14:30:46.188Z,14.30
2018-09-24T14:33:19.692Z,14.20
2018-09-24T14:35:53.228Z,14.30
2018-09-24T14:38:26.755Z,14.40
2018-09-24T14:41:00.288Z,14.70
2018-09-24T14:43:33.948Z,15.10
2018-09-24T14:46:07.431Z,15.30
2018-09-24T14:48:40.989Z,15.50
2018-09-24T14:51:14.554Z,15.40
2018-09-24T14:53:48.124Z,15.40
2018-09-24T14:56:21.836Z,15.30
2018-09-24T14:58:55.228Z,15.30
2018-09-24T15:01:28.709Z,15.10
2018-09-24T15:04:02.704Z,15.10
2018-09-24T15:06:36.188Z,15.00
2018-09-24T15:09:11.293Z,15.00
2018-09-24T15:11:44.750Z,15.00
2018-09-24T15:14:18.583Z,15.00
2018-09-24T15:16:52.241Z,14.90
2018-09-24T15:19:25.771Z,14.90
2018-09-24T15:21:59.355Z,15.00
2018-09-24T15:24:32.719Z,15.00
2018-09-24T15:27:06.488Z,15.00
2018-09-24T15:29:40.160Z,14.80
2018-09-24T15:32:13.718Z,14.60
2018-09-24T15:34:47.174Z,14.60
2018-09-24T15:37:20.700Z,14.50
2018-09-24T15:39:54.160Z,14.40
2018-09-24T15:42:27.661Z,14.40
2018-09-24T15:45:01.440Z,14.20
2018-09-24T15:47:34.999Z,14.20
2018-09-24T15:50:08.664Z,14.20
2018-09-24T15:52:42.335Z,14.10
2018-09-24T15:55:15.840Z,14.10
2018-09-24T15:57:49.602Z,14.10
2018-09-24T16:00:23.321Z,14.10
2018-09-24T16:02:56.748Z,14.10
2018-09-24T16:05:30.363Z,14.10
2018-09-24T16:08:03.904Z,14.20
2018-09-24T16:10:37.676Z,14.20
2018-09-24T16:13:18.281Z,14.10
2018-09-24T16:15:51.893Z,14.00
2018-09-24T16:18:25.709Z,14.00
2018-09-24T16:20:59.383Z,13.90
2018-09-24T16:23:32.884Z,13.90
2018-09-24T16:26:06.529Z,13.80
2018-09-24T16:28:40.123Z,13.80
2018-09-24T16:31:13.547Z,13.80
2018-09-24T16:33:47.252Z,13.80
2018-09-24T16:36:20.951Z,13.80
2018-09-24T16:38:54.528Z,13.80
2018-09-24T16:41:28.041Z,13.70
2018-09-24T16:44:01.802Z,13.60
2018-09-24T16:46:35.460Z,13.60
2018-09-24T16:49:08.960Z,13.50
2018-09-24T16:51:42.502Z,13.50
2018-09-24T16:54:16.183Z,13.40
2018-09-24T16:56:49.884Z,13.40
2018-09-24T16:59:23.420Z,13.30
2018-09-24T17:01:57.172Z,13.20
2018-09-24T17:04:30.880Z,13.20
2018-09-24T17:07:04.373Z,13.10
2018-09-24T17:09:38.144Z,13.10
2018-09-24T17:12:12.191Z,13.00
2018-09-24T17:14:45.720Z,13.00
2018-09-24T17:17:19.376Z,12.90
2018-09-24T17:19:52.976Z,12.90
2018-09-24T17:22:26.579Z,12.80
2018-09-24T17:25:00.108Z,12.70
2018-09-24T17:27:33.652Z,12.70
2018-09-24T17:30:07.260Z,12.70
2018-09-24T17:32:40.999Z,12.60
2018-09-24T17:35:14.831Z,12.60
2018-09-24T17:37:48.240Z,12.50
2018-09-24T17:40:21.949Z,12.50
2018-09-24T17:42:55.500Z,12.50
2018-09-24T17:45:29.148Z,12.40
2018-09-24T17:48:02.800Z,12.30
2018-09-24T17:50:36.270Z,12.30
2018-09-24T17:53:09.999Z,12.30
2018-09-24T17:55:46.024Z,12.30
2018-09-24T17:58:19.501Z,12.20
2018-09-24T18:00:53.204Z,12.20
2018-09-24T18:03:26.671Z,12.30
2018-09-24T18:06:00.322Z,12.30
2018-09-24T18:08:33.904Z,12.30
2018-09-24T18:11:07.495Z,12.30
2018-09-24T18:13:41.088Z,12.30
2018-09-24T18:16:14.644Z,12.30
2018-09-24T18:18:48.256Z,12.20
2018-09-24T18:21:21.850Z,12.20
2018-09-24T18:23:55.371Z,12.20
2018-09-24T18:26:29.090Z,12.20
2018-09-24T18:29:02.922Z,12.10
2018-09-24T18:31:36.954Z,12.10
2018-09-24T18:34:10.891Z,12.10
2018-09-24T18:36:44.796Z,12.00
2018-09-24T18:39:18.500Z,11.90
2018-09-24T18:44:43.893Z,11.70
2018-09-24T18:47:17.577Z,11.70
2018-09-24T18:49:51.103Z,11.60
2018-09-24T18:52:24.606Z,11.60
2018-09-24T18:54:58.394Z,11.60
2018-09-24T18:57:32.042Z,11.50
2018-09-24T19:00:05.591Z,11.50
2018-09-24T19:02:39.197Z,11.50
2018-09-24T19:05:12.938Z,11.50
2018-09-24T19:07:46.498Z,11.50
2018-09-24T19:10:20.014Z,11.50
2018-09-24T19:12:53.737Z,11.40
2018-09-24T19:15:27.341Z,11.40
2018-09-24T19:18:01.066Z,11.30
2018-09-24T19:20:34.662Z,11.30
2018-09-24T19:23:08.186Z,11.30
2018-09-24T19:25:41.879Z,11.20
2018-09-24T19:28:15.643Z,11.20
2018-09-24T19:30:49.485Z,11.10
2018-09-24T19:33:23.200Z,11.10
2018-09-24T19:35:56.808Z,11.00
2018-09-24T19:38:30.301Z,10.90
2018-09-24T19:41:03.915Z,10.90
2018-09-24T19:43:37.518Z,10.90
2018-09-24T19:46:11.138Z,10.90
2018-09-24T19:48:44.726Z,10.80
2018-09-24T19:51:18.367Z,10.80
2018-09-24T19:53:51.979Z,10.80
2018-09-24T19:56:25.621Z,10.80
2018-09-24T19:58:59.116Z,10.70
2018-09-24T20:01:32.632Z,10.70
2018-09-24T20:04:06.266Z,10.60
2018-09-24T20:06:39.869Z,10.60
2018-09-24T20:09:14.082Z,10.60
2018-09-24T20:15:01.548Z,10.60
2018-09-24T20:17:35.242Z,10.60
2018-09-24T20:20:08.870Z,10.70
2018-09-24T20:22:42.274Z,10.70
2018-09-24T20:25:15.886Z,10.70
2018-09-24T20:27:49.546Z,10.80
2018-09-24T20:30:23.141Z,10.80
2018-09-24T20:32:56.585Z,10.80
2018-09-24T20:35:30.094Z,10.80
2018-09-24T20:38:03.854Z,10.80
2018-09-24T20:40:37.529Z,10.80
2018-09-24T20:43:11.330Z,10.80
2018-09-24T20:45:45.002Z,10.90
2018-09-24T20:48:18.489Z,10.90
2018-09-24T20:50:52.025Z,10.80
2018-09-24T20:53:25.673Z,10.80
2018-09-24T20:56:00.419Z,10.70
2018-09-24T20:58:34.062Z,10.60
2018-09-24T21:01:07.645Z,10.60
2018-09-24T21:03:41.116Z,10.50
2018-09-24T21:06:14.583Z,10.40
2018-09-24T21:08:47.914Z,10.40
2018-09-24T21:11:21.548Z,10.30
2018-09-24T21:13:55.214Z,10.30
2018-09-24T21:16:28.875Z,10.30
2018-09-24T21:19:02.466Z,10.40
2018-09-24T21:21:36.042Z,10.40
2018-09-24T21:24:09.781Z,10.40
2018-09-24T21:26:43.194Z,10.40
2018-09-24T21:29:16.619Z,10.40
2018-09-24T21:31:50.146Z,10.40
2018-09-24T21:34:23.725Z,10.50
2018-09-24T21:36:57.486Z,10.50
2018-09-24T21:39:31.130Z,10.40
2018-09-24T21:42:04.686Z,10.40
2018-09-24T21:44:38.383Z,10.40
2018-09-24T21:47:11.994Z,10.40
2018-09-24T21:49:45.545Z,10.50
2018-09-24T21:52:19.215Z,10.50
2018-09-24T21:54:52.694Z,10.50
2018-09-24T21:57:26.255Z,10.50
2018-09-24T21:59:59.957Z,10.50
2018-09-24T22:02:33.425Z,10.50
2018-09-24T22:05:06.807Z,10.50
2018-09-24T22:07:40.477Z,10.50
2018-09-24T22:10:13.982Z,10.50
2018-09-24T22:12:47.642Z,10.50
2018-09-24T22:15:21.232Z,10.50
2018-09-24T22:17:54.638Z,10.50
2018-09-24T22:20:28.118Z,10.50
2018-09-24T22:23:01.499Z,10.50
2018-09-24T22:25:35.169Z,10.40
2018-09-24T22:28:08.694Z,10.30
2018-09-24T22:30:42.366Z,10.30
2018-09-24T22:33:15.848Z,10.30
2018-09-24T22:35:49.311Z,10.20
2018-09-24T22:38:22.974Z,10.20
2018-09-24T22:40:56.460Z,10.20
2018-09-24T22:43:30.162Z,10.20
2018-09-24T22:46:03.842Z,10.10
2018-09-24T22:48:37.285Z,10.00
2018-09-24T22:51:10.921Z,10.00
2018-09-24T22:53:44.455Z,9.90
2018-09-24T22:56:17.950Z,9.90
2018-09-24T22:58:51.632Z,9.80
2018-09-24T23:01:25.310Z,9.80
2018-09-24T23:03:59.026Z,9.70
2018-09-24T23:06:32.661Z,9.70
2018-09-24T23:09:06.213Z,9.60
2018-09-24T23:11:39.727Z,9.50
2018-09-24T23:14:13.347Z,9.50
2018-09-24T23:16:46.785Z,9.40
2018-09-24T23:19:20.454Z,9.40
2018-09-24T23:21:54.149Z,9.30
2018-09-24T23:24:27.678Z,9.30
2018-09-24T23:27:01.250Z,9.20
2018-09-24T23:29:34.882Z,9.20
2018-09-24T23:32:08.410Z,9.20
2018-09-24T23:34:41.877Z,9.20
2018-09-24T23:37:15.590Z,9.10
2018-09-24T23:39:49.286Z,9.00
2018-09-24T23:42:22.883Z,9.00
2018-09-24T23:44:56.355Z,9.00
2018-09-24T23:47:29.917Z,8.90
2018-09-24T23:50:03.470Z,8.90
2018-09-24T23:52:36.926Z,8.80
2018-09-24T23:55:10.243Z,8.90
2018-09-24T23:57:43.861Z,8.80
